Time;durP1;ratioP1;P1;durP2;ratioP2;P2;SDS_P1;SDS_P2;PMS_P1;PMS_P2;Temp;Humidity;BMP_temperature;BMP_pressure;BME280_temperature;BME280_humidity;BME280_pressure;Samples;Min_cycle;Max_cycle;Signal;HPM_P1;HPM_P2
2022/03/27 00:01:30;;;;;;;14.40;7.40;;;;;;;;;;4996722;28;20176;-51
2022/03/27 00:03:55;;;;;;;13.57;8.00;;;10.30;81.70;;;;;;5013971;28;20311;-50
2022/03/27 00:06:21;;;;;;;15.00;7.93;;;;;;;;;;5014270;28;20190;-49
2022/03/27 00:08:47;;;;;;;12.53;7.50;;;;;;;;;;5013963;28;20204;-48
2022/03/27 00:11:25;;;;;;;10.87;7.43;;;10.20;55.80;;;;;;4996456;28;20271;-52
2022/03/27 00:14:01;;;;;;;12.90;7.07;;;10.10;50.10;;;;;;5013584;28;20176;-52
2022/03/27 00:16:27;;;;;;;12.97;7.47;;;;;;;;;;5013865;28;20555;-51
2022/03/27 00:18:53;;;;;;;13.77;7.50;;;;;;;;;;5012640;28;20196;-53
2022/03/27 00:21:22;;;;;;;11.20;7.70;;;9.90;85.20;;;;;;5013053;28;20676;-50
2022/03/27 00:23:52;;;;;;;13.63;7.87;;;9.90;52.10;;;;;;5013711;28;20184;-52
2022/03/27 00:26:18;;;;;;;13.43;7.53;;;;;;;;;;5013727;28;20161;-57
2022/03/27 00:28:44;;;;;;;15.67;8.13;;;;;;;;;;5013747;28;20314;-51
2022/03/27 00:31:11;;;;;;;12.77;7.97;;;9.80;52.90;;;;;;5013585;28;20215;-52
2022/03/27 00:33:38;;;;;;;10.73;7.87;;;9.60;52.90;;;;;;5013573;28;20278;-53
2022/03/27 00:36:06;;;;;;;13.87;8.27;;;9.70;53.00;;;;;;5013577;28;20216;-52
2022/03/27 00:38:33;;;;;;;14.93;8.27;;;;;;;;;;5013698;28;20184;-50
2022/03/27 00:40:59;;;;;;;13.10;7.97;;;;;;;;;;5013305;28;20667;-54
2022/03/27 00:43:26;;;;;;;11.30;6.90;;;;;;;;;;5013231;28;20172;-53
2022/03/27 00:45:52;;;;;;;12.27;7.87;;;;;;;;;;5013573;28;20173;-51
2022/03/27 00:48:19;;;;;;;13.43;7.50;;;9.50;53.70;;;;;;5013246;28;20250;-53
2022/03/27 00:50:46;;;;;;;12.13;7.77;;;12.20;55.00;;;;;;5013510;28;20211;-53
2022/03/27 00:53:12;;;;;;;13.97;8.20;;;;;;;;;;5013000;28;20553;-51
2022/03/27 00:55:38;;;;;;;13.37;8.57;;;;;;;;;;5013197;28;20669;-51
2022/03/27 00:58:04;;;;;;;11.00;7.70;;;;;;;;;;5012993;28;20215;-53
2022/03/27 01:00:45;;;;;;;14.27;8.10;;;;;;;;;;5063591;23;20706;-58
2022/03/27 01:03:13;;;;;;;13.73;8.73;;;9.60;53.60;;;;;;5043215;28;20175;-56
2022/03/27 01:05:39;;;;;;;12.43;8.03;;;;;;;;;;5050021;28;20202;-56
2022/03/27 01:08:06;;;;;;;15.70;8.37;;;9.40;54.20;;;;;;5051291;28;20270;-56
2022/03/27 01:10:32;;;;;;;17.37;8.33;;;;;;;;;;5051713;28;20221;-53
2022/03/27 01:12:58;;;;;;;13.33;7.70;;;9.60;91.80;;;;;;5051924;28;20179;-55
2022/03/27 01:15:31;;;;;;;16.67;8.10;;;9.40;54.50;;;;;;5051604;28;20252;-56
2022/03/27 01:17:57;;;;;;;15.10;8.37;;;;;;;;;;5041283;28;20641;-58
2022/03/27 01:20:35;;;;;;;14.50;8.90;;;9.20;55.20;;;;;;5051317;28;20264;-55
2022/03/27 01:23:01;;;;;;;14.20;9.13;;;;;;;;;;5051154;28;20647;-57
2022/03/27 01:25:27;;;;;;;14.77;8.43;;;;;;;;;;5052129;28;20186;-56
2022/03/27 01:27:53;;;;;;;14.93;8.87;;;;;;;;;;5052314;28;20639;-55
2022/03/27 01:30:20;;;;;;;15.23;9.43;;;;;;;;;;5051751;28;20578;-58
2022/03/27 01:32:46;;;;;;;16.77;9.60;;;;;;;;;;5051521;28;20189;-57
2022/03/27 01:35:12;;;;;;;15.13;9.27;;;;;;;;;;5050944;28;20199;-54
2022/03/27 01:37:38;;;;;;;13.63;9.03;;;;;;;;;;5051740;28;20261;-58
2022/03/27 01:40:05;;;;;;;15.30;8.63;;;9.00;60.40;;;;;;5051495;28;20203;-58
2022/03/27 01:42:31;;;;;;;18.93;8.97;;;;;;;;;;5051777;28;20790;-55
2022/03/27 01:44:57;;;;;;;16.67;9.50;;;;;;;;;;5052104;28;20246;-56
2022/03/27 01:47:23;;;;;;;15.63;9.97;;;;;;;;;;5051270;28;20226;-57
2022/03/27 01:49:49;;;;;;;13.43;9.40;;;;;;;;;;5051010;28;20248;-58
2022/03/27 01:52:15;;;;;;;13.30;9.47;;;;;;;;;;5051289;28;20182;-58
2022/03/27 01:54:41;;;;;;;12.70;9.03;;;;;;;;;;5046630;28;20585;-55
2022/03/27 01:57:07;;;;;;;18.00;10.60;;;;;;;;;;5051369;28;20175;-56
2022/03/27 01:59:35;;;;;;;14.90;9.57;;;;;;;;;;5050957;28;20240;-54
2022/03/27 02:02:01;;;;;;;15.63;10.40;;;;;;;;;;5051045;28;20167;-57
2022/03/27 02:04:27;;;;;;;19.43;9.90;;;;;;;;;;5050332;28;20190;-57
2022/03/27 02:06:53;;;;;;;17.77;9.50;;;;;;;;;;5050991;28;20172;-53
2022/03/27 02:09:19;;;;;;;16.30;10.13;;;;;;;;;;5043458;28;20193;-56
2022/03/27 02:11:45;;;;;;;15.73;10.27;;;;;;;;;;5051253;28;20206;-56
2022/03/27 02:14:11;;;;;;;17.07;10.27;;;8.50;61.60;;;;;;5033117;28;20615;-56
2022/03/27 02:16:38;;;;;;;16.00;10.77;;;;;;;;;;5051335;28;20234;-57
2022/03/27 02:19:09;;;;;;;13.90;9.83;;;8.50;62.40;;;;;;5050723;28;20246;-56
2022/03/27 02:21:35;;;;;;;15.37;9.73;;;;;;;;;;5051500;28;20173;-57
2022/03/27 02:24:03;;;;;;;17.53;10.93;;;;;;;;;;5050961;28;20186;-59
2022/03/27 02:26:29;;;;;;;17.63;10.90;;;;;;;;;;5051468;28;20193;-57
2022/03/27 02:28:55;;;;;;;17.73;10.60;;;;;;;;;;5051200;28;20178;-57
2022/03/27 02:31:21;;;;;;;17.17;9.63;;;;;;;;;;5051079;28;20199;-56
2022/03/27 02:33:47;;;;;;;18.97;10.07;;;8.30;95.90;;;;;;5050923;28;20529;-57
2022/03/27 02:36:13;;;;;;;15.70;9.83;;;;;;;;;;5051139;28;20680;-56
2022/03/27 02:38:39;;;;;;;18.27;9.50;;;;;;;;;;5050851;28;20175;-56
2022/03/27 02:41:06;;;;;;;15.10;9.83;;;;;;;;;;5050907;28;20182;-57
2022/03/27 02:43:32;;;;;;;13.50;9.93;;;;;;;;;;5051045;28;20309;-57
2022/03/27 02:45:58;;;;;;;14.23;9.53;;;;;;;;;;5054706;28;20171;-56
2022/03/27 02:48:24;;;;;;;18.67;9.40;;;;;;;;;;5055367;28;20194;-56
2022/03/27 02:50:50;;;;;;;11.90;8.83;;;8.10;96.80;;;;;;5054916;28;20590;-56
2022/03/27 02:53:16;;;;;;;15.17;9.57;;;;;;;;;;5054088;28;20690;-56
2022/03/27 02:55:42;;;;;;;15.13;9.90;;;;;;;;;;5049559;28;20221;-57
2022/03/27 02:58:08;;;;;;;16.10;10.27;;;;;;;;;;5055231;28;20168;-57
2022/03/27 03:00:34;;;;;;;15.10;9.80;;;;;;;;;;5054581;28;20207;-59
2022/03/27 03:03:00;;;;;;;14.43;9.40;;;;;;;;;;5054115;28;20203;-59
2022/03/27 03:05:26;;;;;;;16.77;9.43;;;;;;;;;;5054655;28;20288;-57
2022/03/27 03:07:51;;;;;;;16.23;10.20;;;8.40;95.80;;;;;;5055002;28;20185;-56
2022/03/27 03:10:18;;;;;;;15.17;10.20;;;;;;;;;;5020410;28;20560;-55
2022/03/27 03:12:44;;;;;;;19.43;9.80;;;8.30;96.90;;;;;;5054607;28;20225;-54
2022/03/27 03:15:09;;;;;;;15.43;9.70;;;8.00;97.20;;;;;;5056088;28;20210;-56
2022/03/27 03:17:36;;;;;;;15.43;10.17;;;;;;;;;;5048872;28;20555;-58
2022/03/27 03:20:02;;;;;;;16.90;10.57;;;;;;;;;;5054585;28;20217;-56
2022/03/27 03:22:28;;;;;;;17.87;10.57;;;8.30;96.80;;;;;;5054984;28;20203;-54
2022/03/27 03:24:54;;;;;;;14.60;11.30;;;;;;;;;;5052505;28;20219;-56
2022/03/27 03:27:20;;;;;;;17.17;11.17;;;;;;;;;;5054480;28;20204;-57
2022/03/27 03:29:46;;;;;;;20.33;11.50;;;;;;;;;;5054691;28;20202;-55
2022/03/27 03:32:12;;;;;;;18.57;11.70;;;;;;;;;;5054762;28;20920;-56
2022/03/27 03:34:38;;;;;;;20.30;11.50;;;;;;;;;;5054433;28;20552;-57
2022/03/27 03:37:05;;;;;;;16.40;11.23;;;;;;;;;;5054575;28;20186;-58
2022/03/27 03:39:30;;;;;;;21.27;13.23;;;;;;;;;;5054398;28;20261;-57
2022/03/27 03:41:56;;;;;;;21.07;14.10;;;;;;;;;;5054358;28;20640;-56
2022/03/27 03:44:24;;;;;;;20.07;13.03;;;7.60;64.00;;;;;;5054286;28;20544;-55
2022/03/27 03:46:50;;;;;;;17.47;12.53;;;;;;;;;;5054427;28;20171;-54
2022/03/27 03:49:16;;;;;;;19.00;14.20;;;7.80;96.70;;;;;;5054270;28;20175;-55
2022/03/27 03:51:42;;;;;;;20.57;12.50;;;;;;;;;;5054423;28;20221;-56
2022/03/27 03:54:08;;;;;;;19.90;13.10;;;;;;;;;;5053725;28;20250;-53
2022/03/27 03:56:34;;;;;;;22.47;12.47;;;7.70;63.50;;;;;;5052832;28;20203;-53
2022/03/27 03:59:00;;;;;;;20.70;11.97;;;;;;;;;;5053984;28;20695;-56
2022/03/27 04:01:26;;;;;;;19.13;12.10;;;;;;;;;;5052861;28;20285;-53
2022/03/27 04:03:52;;;;;;;20.33;12.33;;;;;;;;;;5053691;28;20167;-56
2022/03/27 04:06:18;;;;;;;19.43;12.07;;;;;;;;;;5054009;28;20167;-53
2022/03/27 04:08:44;;;;;;;16.47;11.80;;;;;;;;;;5053901;28;20171;-55
2022/03/27 04:11:16;;;;;;;16.93;11.40;;;;;;;;;;5053488;28;20541;-55
2022/03/27 04:13:42;;;;;;;20.30;12.97;;;;;;;;;;5035826;28;20182;-52
2022/03/27 04:16:07;;;;;;;18.67;12.67;;;7.50;96.60;;;;;;5053693;28;20668;-54
2022/03/27 04:18:33;;;;;;;22.93;13.30;;;;;;;;;;5053679;28;20171;-56
2022/03/27 04:20:59;;;;;;;19.33;13.97;;;;;;;;;;5053546;28;20202;-56
2022/03/27 04:23:25;;;;;;;17.97;11.13;;;;;;;;;;5053405;28;20173;-58
2022/03/27 04:25:51;;;;;;;19.13;11.90;;;;;;;;;;5053499;28;20252;-56
2022/03/27 04:28:17;;;;;;;15.93;11.53;;;;;;;;;;5053732;28;20198;-55
2022/03/27 04:30:43;;;;;;;19.97;12.10;;;;;;;;;;5053659;28;20195;-54
2022/03/27 04:33:10;;;;;;;18.23;11.93;;;;;;;;;;5044786;28;20254;-56
2022/03/27 04:35:35;;;;;;;19.53;12.03;;;7.40;94.90;;;;;;5053411;28;20198;-55
2022/03/27 04:38:01;;;;;;;20.30;11.33;;;7.20;95.50;;;;;;5053359;28;20627;-56
2022/03/27 04:40:28;;;;;;;17.17;11.10;;;;;;;;;;5053333;28;20203;-52
2022/03/27 04:42:54;;;;;;;15.20;10.73;;;7.20;97.40;;;;;;5052982;28;20582;-57
2022/03/27 04:45:20;;;;;;;16.07;9.87;;;;;;;;;;5053442;28;20258;-54
2022/03/27 04:47:45;;;;;;;14.57;9.83;;;7.40;97.20;;;;;;5053238;28;20305;-53
2022/03/27 04:50:11;;;;;;;16.80;9.73;;;6.90;89.50;;;;;;5053196;28;20552;-52
2022/03/27 04:52:37;;;;;;;15.37;9.73;;;7.00;97.90;;;;;;5052663;28;20591;-57
2022/03/27 04:55:03;;;;;;;15.23;10.23;;;6.80;97.50;;;;;;5053075;28;20203;-53
2022/03/27 04:57:37;;;;;;;15.63;10.00;;;7.20;83.20;;;;;;5035194;28;20727;-53
2022/03/27 05:00:04;;;;;;;14.27;10.27;;;7.00;97.90;;;;;;5052707;28;20285;-56
2022/03/27 05:02:30;;;;;;;12.63;9.40;;;;;;;;;;5052821;28;20709;-51
2022/03/27 05:04:56;;;;;;;15.37;9.50;;;;;;;;;;5052843;28;20176;-54
2022/03/27 05:07:22;;;;;;;12.20;9.27;;;6.90;84.20;;;;;;5052254;28;20203;-52
2022/03/27 05:09:48;;;;;;;15.63;9.57;;;;;;;;;;5052373;28;20218;-56
2022/03/27 05:12:14;;;;;;;13.77;8.67;;;;;;;;;;5052584;28;20182;-60
2022/03/27 05:14:40;;;;;;;15.50;9.07;;;;;;;;;;5052441;28;20202;-55
2022/03/27 05:17:06;;;;;;;14.83;10.03;;;;;;;;;;5052743;28;20178;-52
2022/03/27 05:19:32;;;;;;;13.67;9.40;;;;;;;;;;5052356;28;20238;-52
2022/03/27 05:21:58;;;;;;;19.60;9.90;;;;;;;;;;5052586;28;20655;-54
2022/03/27 05:24:25;;;;;;;15.37;10.47;;;;;;;;;;5052413;28;20186;-53
2022/03/27 05:26:51;;;;;;;12.57;9.53;;;;;;;;;;5052237;28;20171;-52
2022/03/27 05:29:16;;;;;;;14.30;9.63;;;7.40;97.40;;;;;;5052608;28;20549;-52
2022/03/27 05:31:42;;;;;;;16.83;10.20;;;;;;;;;;5052247;28;20659;-55
2022/03/27 05:34:08;;;;;;;16.47;10.63;;;;;;;;;;5049929;28;20311;-53
2022/03/27 05:36:34;;;;;;;14.70;10.07;;;;;;;;;;5051864;28;20209;-56
2022/03/27 05:39:00;;;;;;;17.40;10.27;;;;;;;;;;5052355;28;20258;-55
2022/03/27 05:41:26;;;;;;;16.17;10.40;;;;;;;;;;5052068;28;20620;-52
2022/03/27 05:43:52;;;;;;;14.13;9.90;;;;;;;;;;5052127;28;20179;-52
2022/03/27 05:46:17;;;;;;;14.33;10.10;;;7.60;98.30;;;;;;5051992;28;20640;-52
2022/03/27 05:48:43;;;;;;;16.27;10.07;;;;;;;;;;5051815;28;20183;-57
2022/03/27 05:51:09;;;;;;;14.23;9.40;;;;;;;;;;5051678;28;20199;-55
2022/03/27 05:53:35;;;;;;;11.33;8.50;;;7.70;84.10;;;;;;5051736;28;20588;-56
2022/03/27 05:56:01;;;;;;;16.03;9.67;;;;;;;;;;5059826;28;20752;-56
2022/03/27 05:58:27;;;;;;;12.90;8.90;;;;;;;;;;5072015;28;20219;-56
2022/03/27 06:00:53;;;;;;;16.67;9.70;;;;;;;;;;5071726;28;20214;-57
2022/03/27 06:03:19;;;;;;;12.90;9.10;;;;;;;;;;5071717;28;20174;-59
2022/03/27 06:05:45;;;;;;;11.43;8.93;;;8.00;99.90;;;;;;5072547;28;20178;-56
2022/03/27 06:08:11;;;;;;;12.93;9.63;;;;;;;;;;5072658;28;20227;-58
2022/03/27 06:10:39;;;;;;;15.30;9.97;;;;;;;;;;5072511;28;20226;-54
2022/03/27 06:13:05;;;;;;;12.77;9.43;;;7.80;99.90;;;;;;5071123;28;20582;-56
2022/03/27 06:15:32;;;;;;;13.23;9.10;;;8.20;73.80;;;;;;5071680;28;20202;-57
2022/03/27 06:17:58;;;;;;;14.13;9.63;;;;;;;;;;5068155;28;20167;-57
2022/03/27 06:20:28;;;;;;;14.27;9.23;;;8.80;99.90;;;;;;5038033;28;20202;-55
2022/03/27 06:22:55;;;;;;;14.40;9.63;;;8.70;72.70;;;;;;5045171;28;20193;-57
2022/03/27 06:25:24;;;;;;;12.57;9.27;;;8.70;72.80;;;;;;5040208;28;20183;-56
2022/03/27 06:27:50;;;;;;;15.20;8.90;;;;;;;;;;5041808;28;20274;-55
2022/03/27 06:30:18;;;;;;;15.23;9.57;;;8.90;72.00;;;;;;5042602;28;20198;-57
2022/03/27 06:32:45;;;;;;;13.47;9.30;;;;;;;;;;5033152;28;20382;-57
2022/03/27 06:35:13;;;;;;;15.17;10.20;;;9.20;73.90;;;;;;5051503;28;20726;-55
2022/03/27 06:37:39;;;;;;;15.03;9.63;;;;;;;;;;5046598;28;20179;-54
2022/03/27 06:40:06;;;;;;;11.83;9.57;;;;;;;;;;5048033;28;20195;-54
2022/03/27 06:42:32;;;;;;;14.00;10.33;;;;;;;;;;5051255;28;20186;-54
2022/03/27 06:44:58;;;;;;;13.43;9.57;;;;;;;;;;5051307;28;20175;-57
2022/03/27 06:47:26;;;;;;;11.47;9.00;;;9.50;73.30;;;;;;5051568;28;20176;-54
2022/03/27 06:49:52;;;;;;;11.27;9.70;;;;;;;;;;5051099;28;20203;-57
2022/03/27 06:52:18;;;;;;;11.67;9.40;;;;;;;;;;5051036;28;20705;-54
2022/03/27 06:54:45;;;;;;;14.67;10.40;;;9.90;72.80;;;;;;5051108;28;20175;-57
2022/03/27 06:57:11;;;;;;;11.63;9.30;;;;;;;;;;5051711;28;20644;-56
2022/03/27 07:05:07;;;;;;;12.17;9.30;;;;;;;;;;5050591;28;20614;-90
2022/03/27 07:07:35;;;;;;;12.20;9.47;;;;;;;;;;5033904;28;20178;-90
2022/03/27 07:10:01;;;;;;;13.43;9.67;;;;;;;;;;5034402;28;20179;-90
2022/03/27 07:12:27;;;;;;;12.67;9.37;;;;;;;;;;5035108;28;20183;-90
2022/03/27 07:14:53;;;;;;;12.30;9.27;;;;;;;;;;5035317;28;20182;-92
2022/03/27 07:17:19;;;;;;;12.33;9.53;;;;;;;;;;5035281;28;20186;-91
2022/03/27 07:19:45;;;;;;;13.83;9.97;;;;;;;;;;5031402;28;20172;-90
2022/03/27 07:22:11;;;;;;;13.47;9.50;;;;;;;;;;5033843;28;20183;-91
2022/03/27 07:24:38;;;;;;;11.70;9.07;;;;;;;;;;5034270;28;20250;-89
2022/03/27 07:27:04;;;;;;;14.67;9.97;;;;;;;;;;5034592;28;20630;-91
2022/03/27 07:29:35;;;;;;;11.73;9.30;;;;;;;;;;5034149;28;20270;-91
2022/03/27 07:32:01;;;;;;;11.53;9.13;;;;;;;;;;5038255;28;20225;-89
2022/03/27 07:34:33;;;;;;;12.40;9.83;;;;;;;;;;5039844;28;20236;-93
2022/03/27 07:37:08;;;;;;;12.47;9.27;;;;;;;;;;5038506;28;20654;-92
2022/03/27 07:39:34;;;;;;;13.57;9.07;;;;;;;;;;5015704;28;20184;-90
2022/03/27 07:42:00;;;;;;;12.37;9.00;;;;;;;;;;5015285;28;20189;-91
2022/03/27 07:44:26;;;;;;;12.50;9.00;;;;;;;;;;5012949;28;20191;-92
2022/03/27 07:46:58;;;;;;;12.03;9.20;;;;;;;;;;5013971;28;20559;-91
2022/03/27 07:49:25;;;;;;;11.67;9.23;;;;;;;;;;5013178;28;20211;-92
2022/03/27 07:51:51;;;;;;;11.77;8.70;;;;;;;;;;5013143;28;20169;-90
2022/03/27 07:54:17;;;;;;;13.03;9.20;;;;;;;;;;5013106;28;20184;-90
2022/03/27 07:56:43;;;;;;;13.60;9.40;;;;;;;;;;5013836;28;20270;-89
2022/03/27 07:59:09;;;;;;;13.53;9.83;;;;;;;;;;5013362;28;20177;-91
2022/03/27 08:01:35;;;;;;;10.77;9.07;;;;;;;;;;5015038;28;20251;-89
2022/03/27 08:04:02;;;;;;;11.40;9.00;;;;;;;;;;5014426;28;20259;-89
2022/03/27 08:06:29;;;;;;;12.17;9.70;;;;;;;;;;5014372;28;20176;-90
2022/03/27 08:08:56;;;;;;;13.30;10.03;;;;;;;;;;5013941;28;20176;-90
2022/03/27 08:11:23;;;;;;;14.17;10.03;;;;;;;;;;5042494;28;20195;-90
2022/03/27 08:13:49;;;;;;;13.63;11.07;;;;;;;;;;5032127;28;20167;-91
2022/03/27 08:16:15;;;;;;;14.20;10.17;;;;;;;;;;5054388;28;20294;-89
2022/03/27 08:18:43;;;;;;;15.70;10.20;;;;;;;;;;5040318;28;20172;-91
2022/03/27 08:21:09;;;;;;;12.23;9.33;;;;;;;;;;5051736;28;20177;-90
2022/03/27 08:23:34;;;;;;;11.83;10.13;;;;;;;;;;5054731;28;20204;-90
2022/03/27 08:28:45;;;;;;;13.87;10.60;;;;;;;;;;5052951;28;20262;-90
2022/03/27 08:31:11;;;;;;;11.50;10.13;;;;;;;;;;5052422;28;20209;-91
2022/03/27 08:33:37;;;;;;;11.30;10.10;;;;;;;;;;5034888;28;20618;-90
2022/03/27 08:36:03;;;;;;;11.40;10.20;;;;;;;;;;5035044;28;20231;-89
2022/03/27 08:38:30;;;;;;;13.37;10.50;;;;;;;;;;5036015;28;20225;-91
2022/03/27 08:40:56;;;;;;;12.53;10.07;;;;;;;;;;5036476;28;20172;-90
2022/03/27 08:43:22;;;;;;;11.20;9.90;;;;;;;;;;5053444;28;20171;-90
2022/03/27 08:45:48;;;;;;;11.97;10.47;;;;;;;;;;5047472;28;20209;-90
2022/03/27 08:48:14;;;;;;;14.17;10.37;;;;;;;;;;5055964;28;20194;-90
2022/03/27 08:51:20;;;;;;;12.97;10.30;;;17.00;62.00;;;;;;5055993;28;20194;-90
2022/03/27 08:53:59;;;;;;;11.47;10.10;;;;;;;;;;5016155;28;20574;-90
2022/03/27 08:56:25;;;;;;;12.37;10.53;;;;;;;;;;5016048;28;20203;-90
2022/03/27 08:58:51;;;;;;;11.87;10.17;;;;;;;;;;5015938;28;20211;-92
2022/03/27 09:01:17;;;;;;;14.03;11.27;;;;;;;;;;5047406;28;20190;-90
2022/03/27 09:03:44;;;;;;;10.67;9.57;;;;;;;;;;5049413;28;20182;-90
2022/03/27 09:06:10;;;;;;;13.33;10.40;;;;;;;;;;5039320;28;20191;-89
2022/03/27 09:08:36;;;;;;;11.60;9.77;;;;;;;;;;5050880;28;21278;-89
2022/03/27 09:11:03;;;;;;;11.23;9.50;;;;;;;;;;5048752;28;20201;-90
2022/03/27 09:13:30;;;;;;;11.77;10.47;;;;;;;;;;5042337;28;20175;-88
2022/03/27 09:15:58;;;;;;;14.37;11.40;;;;;;;;;;5039086;28;20211;-89
2022/03/27 09:18:24;;;;;;;12.17;10.87;;;;;;;;;;5029181;28;20203;-87
2022/03/27 09:20:51;;;;;;;12.97;10.53;;;;;;;;;;5050990;28;20195;-88
2022/03/27 09:23:21;;;;;;;11.83;10.63;;;;;;;;;;5048840;28;20637;-89
2022/03/27 09:25:47;;;;;;;12.90;11.03;;;;;;;;;;5051413;28;20654;-88
2022/03/27 09:28:21;;;;;;;11.30;10.10;;;;;;;;;;5050580;28;20175;-89
2022/03/27 09:30:47;;;;;;;11.83;10.33;;;;;;;;;;5030331;28;20167;-88
2022/03/27 09:33:29;;;;;;;12.80;10.47;;;;;;;;;;5034538;28;20262;-89
2022/03/27 09:36:03;;;;;;;10.77;9.60;;;;;;;;;;5034101;28;20194;-88
2022/03/27 09:38:29;;;;;;;12.67;11.00;;;;;;;;;;5032061;28;20174;-89
2022/03/27 09:40:55;;;;;;;13.13;10.83;;;;;;;;;;5036325;28;20179;-89
2022/03/27 09:43:22;;;;;;;15.43;10.27;;;;;;;;;;5051699;28;20301;-89
2022/03/27 09:46:02;;;;;;;10.60;9.33;;;;;;;;;;5056186;28;20178;-89
2022/03/27 09:48:29;;;;;;;12.90;10.03;;;;;;;;;;5032111;28;20164;-89
2022/03/27 09:51:04;;;;;;;11.80;9.37;;;;;;;;;;5054849;28;20240;-90
2022/03/27 09:53:31;;;;;;;10.37;9.13;;;;;;;;;;5047936;28;20498;-89
2022/03/27 09:56:00;;;;;;;10.03;8.30;;;;;;;;;;5050560;28;20883;-89
2022/03/27 09:58:33;;;;;;;8.27;7.47;;;;;;;;;;5044836;28;20634;-89
2022/03/27 10:01:09;;;;;;;9.30;7.53;;;;;;;;;;5043186;28;20692;-90
2022/03/27 10:03:36;;;;;;;9.87;7.30;;;;;;;;;;5044093;28;20189;-89
2022/03/27 10:06:03;;;;;;;9.97;7.40;;;;;;;;;;5036231;28;20369;-90
2022/03/27 10:08:29;;;;;;;7.63;6.80;;;;;;;;;;5033443;28;20172;-88
2022/03/27 10:10:58;;;;;;;8.13;5.10;;;;;;;;;;5044029;28;20627;-90
2022/03/27 10:13:28;;;;;;;7.57;6.60;;;19.90;52.80;;;;;;5034006;28;20171;-88
2022/03/27 10:15:54;;;;;;;10.43;8.17;;;;;;;;;;5043223;28;20201;-89
2022/03/27 10:18:20;;;;;;;9.80;7.73;;;;;;;;;;5034958;28;20214;-89
2022/03/27 10:20:50;;;;;;;12.57;8.10;;;;;;;;;;5036914;28;20172;-89
2022/03/27 10:23:27;;;;;;;6.40;5.80;;;21.70;51.50;;;;;;5052300;28;20423;-89
2022/03/27 10:25:55;;;;;;;10.15;6.18;;;22.40;49.80;;;;;;5032310;28;20512;-89
2022/03/27 10:28:22;;;;;;;9.75;6.28;;;22.90;46.80;;;;;;5049653;28;20171;-89
2022/03/27 10:30:51;;;;;;;7.68;6.80;;;;;;;;;;5050632;28;20182;-89
2022/03/27 10:33:20;;;;;;;8.93;6.60;;;23.30;45.70;;;;;;5050064;28;20488;-91
2022/03/27 10:35:46;;;;;;;6.60;5.95;;;;;;;;;;5050717;28;20242;-90
2022/03/27 10:38:42;;;;;;;6.45;5.80;;;25.00;44.10;;;;;;5050900;28;20167;-91
2022/03/27 10:41:22;;;;;;;7.88;6.97;;;26.00;62.70;;;;;;5050702;28;20221;-89
2022/03/27 10:43:51;;;;;;;7.72;6.70;;;26.80;60.30;;;;;;5051102;28;20258;-89
2022/03/27 10:46:17;;;;;;;6.38;5.70;;;;;;;;;;5051818;28;20623;-89
2022/03/27 10:48:45;;;;;;;6.10;5.40;;;29.80;36.40;;;;;;5051312;28;20178;-89
2022/03/27 10:51:31;;;;;;;8.23;6.88;;;30.60;33.30;;;;;;5051202;28;20527;-89
2022/03/27 10:54:07;;;;;;;7.68;6.32;;;31.00;49.30;;;;;;5050834;28;20207;-89
2022/03/27 10:56:39;;;;;;;6.85;6.15;;;31.60;35.10;;;;;;5051152;28;20207;-89
2022/03/27 10:59:14;;;;;;;7.18;6.00;;;33.00;42.90;;;;;;5051046;28;20263;-90
2022/03/27 11:01:42;;;;;;;7.53;6.15;;;33.80;30.20;;;;;;5050841;28;20194;-89
2022/03/27 11:04:10;;;;;;;7.15;6.53;;;34.80;29.20;;;;;;5050666;28;20572;-89
2022/03/27 11:06:44;;;;;;;6.75;6.05;;;36.30;31.60;;;;;;5054084;28;20178;-89
2022/03/27 11:09:29;;;;;;;6.07;5.57;;;37.10;28.00;;;;;;5054811;28;20174;-89
2022/03/27 11:11:56;;;;;;;6.60;5.07;;;39.30;37.50;;;;;;5054805;28;20170;-90
2022/03/27 11:14:43;;;;;;;6.47;5.72;;;39.90;26.10;;;;;;5054451;28;20179;-88
2022/03/27 11:17:09;;;;;;;6.88;5.20;;;;;;;;;;5055775;28;20557;-89
2022/03/27 11:19:47;;;;;;;5.70;4.70;;;41.00;27.30;;;;;;5054448;28;20174;-90
2022/03/27 11:22:44;;;;;;;6.70;4.82;;;43.00;24.40;;;;;;5054449;28;20174;-89
2022/03/27 11:25:32;;;;;;;6.43;4.82;;;45.40;28.60;;;;;;5054175;28;20171;-91
2022/03/27 11:28:05;;;;;;;4.93;4.53;;;44.80;23.50;;;;;;5054547;28;20261;-90
2022/03/27 11:30:33;;;;;;;5.63;5.05;;;44.70;23.40;;;;;;5054320;28;20266;-89
2022/03/27 11:33:18;;;;;;;5.38;4.82;;;45.10;28.30;;;;;;5054164;28;20224;-90
2022/03/27 11:36:09;;;;;;;4.80;4.30;;;45.00;24.40;;;;;;5037184;28;20171;-89
2022/03/27 11:38:35;;;;;;;4.95;4.00;;;44.90;23.10;;;;;;5017856;28;20233;-90
2022/03/27 11:41:25;;;;;;;5.65;4.60;;;46.70;27.20;;;;;;5017821;28;20261;-90
2022/03/27 11:43:51;;;;;;;4.75;4.35;;;;;;;;;;5017186;28;20168;-90
2022/03/27 11:46:23;;;;;;;6.65;5.93;;;48.30;22.70;;;;;;5017713;28;20203;-91
2022/03/27 11:48:57;;;;;;;5.32;4.82;;;48.10;22.40;;;;;;5017680;28;20187;-89
2022/03/27 11:51:26;;;;;;;5.85;5.13;;;;;;;;;;5035490;28;20718;-89
2022/03/27 11:53:53;;;;;;;8.15;5.28;;;42.40;22.60;;;;;;5017568;28;20168;-89
2022/03/27 11:56:20;;;;;;;5.57;5.07;;;;;;;;;;5018446;28;20266;-90
2022/03/27 11:59:05;;;;;;;6.35;5.55;;;40.80;23.10;;;;;;5036428;28;20508;-89
2022/03/27 12:01:31;;;;;;;7.03;5.60;;;;;;;;;;5019981;28;20187;-89
2022/03/27 12:04:00;;;;;;;5.15;4.75;;;40.20;24.20;;;;;;5041426;28;20182;-89
2022/03/27 12:06:28;;;;;;;6.75;5.97;;;39.70;24.00;;;;;;5041602;28;20219;-88
2022/03/27 12:08:54;;;;;;;7.28;5.43;;;;;;;;;;5040969;28;20156;-88
2022/03/27 12:11:25;;;;;;;6.10;5.50;;;38.80;30.30;;;;;;5038235;28;20172;-88
2022/03/27 12:13:52;;;;;;;6.20;5.70;;;;;;;;;;5041154;28;20159;-88
2022/03/27 12:16:23;;;;;;;6.28;5.32;;;38.70;32.20;;;;;;5040469;28;20168;-88
2022/03/27 12:18:50;;;;;;;4.70;4.30;;;39.20;31.60;;;;;;5034414;28;20183;-90
2022/03/27 12:21:23;;;;;;;6.22;5.43;;;38.70;25.00;;;;;;5017820;28;20167;-89
2022/03/27 12:24:02;;;;;;;6.15;5.50;;;38.80;24.70;;;;;;5017689;28;20175;-89
2022/03/27 12:29:50;;;;;;;6.25;4.90;;;39.10;31.20;;;;;;4973296;28;20584;-90
2022/03/27 12:32:17;;;;;;;5.60;5.10;;;39.10;24.30;;;;;;4957156;28;20173;-90
2022/03/27 12:34:48;;;;;;;6.57;5.97;;;38.40;24.80;;;;;;4957265;28;20181;-89
2022/03/27 12:37:22;;;;;;;6.50;5.82;;;37.00;25.20;;;;;;4973333;28;20181;-88
2022/03/27 12:39:47;;;;;;;7.53;6.28;;;35.20;34.80;;;;;;4957033;28;20204;-88
2022/03/27 12:42:49;;;;;;;6.93;6.22;;;35.20;34.80;;;;;;4973140;28;20172;-88
2022/03/27 12:45:26;;;;;;;7.28;5.75;;;34.90;32.60;;;;;;4953799;29;20274;-89
2022/03/27 12:47:59;;;;;;;7.22;6.18;;;34.40;36.00;;;;;;4937642;29;20705;-89
2022/03/27 12:50:32;;;;;;;7.03;5.82;;;32.40;38.00;;;;;;4953395;29;20225;-89
2022/03/27 12:53:06;;;;;;;8.93;5.25;;;32.00;29.30;;;;;;4953379;29;20534;-89
2022/03/27 12:55:42;;;;;;;5.88;5.05;;;32.60;31.20;;;;;;4953575;29;20178;-89
2022/03/27 12:58:08;;;;;;;6.55;5.95;;;;;;;;;;4937398;29;20577;-89
2022/03/27 13:00:44;;;;;;;6.50;5.88;;;33.30;36.90;;;;;;4937524;29;20178;-90
2022/03/27 13:03:10;;;;;;;6.00;5.22;;;;;;;;;;4953009;29;20216;-90
2022/03/27 13:05:36;;;;;;;8.25;6.15;;;;;;;;;;4939953;28;20298;-89
2022/03/27 13:08:02;;;;;;;6.97;6.30;;;;;;;;;;4956656;28;20174;-89
2022/03/27 13:10:28;;;;;;;7.25;5.50;;;;;;;;;;4956526;28;20180;-89
2022/03/27 13:13:13;;;;;;;5.68;5.18;;;32.20;39.10;;;;;;4956108;28;20534;-89
2022/03/27 13:15:53;;;;;;;6.72;6.03;;;31.90;30.00;;;;;;4972733;28;20181;-88
2022/03/27 13:18:29;;;;;;;6.63;6.00;;;31.30;30.20;;;;;;4980333;28;20185;-88
2022/03/27 13:20:55;;;;;;;7.10;6.40;;;;;;;;;;5016133;28;20198;-89
2022/03/27 13:23:21;;;;;;;7.15;6.45;;;;;;;;;;5015483;28;20221;-89
2022/03/27 13:25:47;;;;;;;6.07;5.55;;;29.50;41.80;;;;;;5015555;28;20625;-89
2022/03/27 13:28:13;;;;;;;7.25;5.70;;;;;;;;;;5015495;28;20172;-89
2022/03/27 13:30:39;;;;;;;7.03;5.63;;;;;;;;;;5015668;28;20508;-88
2022/03/27 13:33:06;;;;;;;6.88;6.15;;;29.60;31.50;;;;;;5015582;28;20176;-89
2022/03/27 13:35:32;;;;;;;7.53;6.82;;;;;;;;;;5015525;28;20651;-89
2022/03/27 13:37:59;;;;;;;7.72;6.95;;;;;;;;;;5033083;28;20171;-89
2022/03/27 13:43:11;;;;;;;8.68;7.88;;;29.30;32.40;;;;;;5032960;28;20195;-88
2022/03/27 13:45:38;;;;;;;7.82;7.03;;;;;;;;;;5015344;28;20199;-89
2022/03/27 13:48:05;;;;;;;8.02;6.70;;;29.50;43.80;;;;;;5015403;28;20172;-89
2022/03/27 13:50:31;;;;;;;8.75;6.75;;;;;;;;;;5032893;28;20263;-89
2022/03/27 13:52:58;;;;;;;8.38;6.80;;;;;;;;;;5015239;28;20680;-88
2022/03/27 13:55:24;;;;;;;6.60;6.00;;;28.70;33.20;;;;;;5015408;28;20551;-89
2022/03/27 13:57:50;;;;;;;7.80;7.10;;;;;;;;;;5015322;28;20176;-88
2022/03/27 14:00:17;;;;;;;7.20;6.50;;;28.20;45.90;;;;;;5015189;28;20178;-89
2022/03/27 14:02:43;;;;;;;7.07;6.38;;;;;;;;;;5014770;28;20311;-88
2022/03/27 14:05:09;;;;;;;7.35;6.65;;;28.30;46.80;;;;;;5014964;28;20218;-89
2022/03/27 14:07:35;;;;;;;7.55;6.78;;;;;;;;;;5015064;28;20167;-89
2022/03/27 14:10:01;;;;;;;9.38;6.97;;;;;;;;;;5015040;28;20200;-89